sensor_id;sensor_type;location;lat;lon;timestamp;P1;durP1;ratioP1;P2;durP2;ratioP2
52396;SDS011;38322;53.108;6.308;2022-11-15T06:02:21;41.90;;;25.17;;
52396;SDS011;38322;53.108;6.308;2022-11-15T06:04:46;54.22;;;29.95;;
52396;SDS011;38322;53.108;6.308;2022-11-15T06:07:12;64.47;;;28.63;;
52396;SDS011;38322;53.108;6.308;2022-11-15T06:09:38;56.38;;;29.50;;
52396;SDS011;38322;53.108;6.308;2022-11-15T06:12:04;52.90;;;29.05;;
52396;SDS011;38322;53.108;6.308;2022-11-15T06:14:30;48.55;;;26.27;;
52396;SDS011;38322;53.108;6.308;2022-11-15T06:16:56;55.42;;;26.67;;
52396;SDS011;38322;53.108;6.308;2022-11-15T06:19:22;49.33;;;27.60;;
52396;SDS011;38322;53.108;6.308;2022-11-15T06:21:47;62.75;;;28.75;;
52396;SDS011;38322;53.108;6.308;2022-11-15T06:24:13;55.97;;;30.23;;
52396;SDS011;38322;53.108;6.308;2022-11-15T06:26:39;58.85;;;30.27;;
52396;SDS011;38322;53.108;6.308;2022-11-15T06:29:05;57.50;;;30.90;;
52396;SDS011;38322;53.108;6.308;2022-11-15T06:31:31;57.78;;;29.98;;
52396;SDS011;38322;53.108;6.308;2022-11-15T06:33:56;51.53;;;27.38;;
52396;SDS011;38322;53.108;6.308;2022-11-15T06:36:22;54.40;;;30.65;;
52396;SDS011;38322;53.108;6.308;2022-11-15T06:38:48;52.03;;;30.17;;
52396;SDS011;38322;53.108;6.308;2022-11-15T06:41:14;52.78;;;28.80;;
52396;SDS011;38322;53.108;6.308;2022-11-15T06:43:41;47.15;;;26.38;;
52396;SDS011;38322;53.108;6.308;2022-11-15T06:46:07;51.47;;;29.42;;
52396;SDS011;38322;53.108;6.308;2022-11-15T06:48:34;55.42;;;29.85;;
52396;SDS011;38322;53.108;6.308;2022-11-15T06:51:02;53.38;;;27.23;;
52396;SDS011;38322;53.108;6.308;2022-11-15T06:53:29;50.47;;;28.40;;
52396;SDS011;38322;53.108;6.308;2022-11-15T06:55:59;48.40;;;26.63;;
52396;SDS011;38322;53.108;6.308;2022-11-15T06:58:26;50.42;;;26.90;;
52396;SDS011;38322;53.108;6.308;2022-11-15T07:00:52;53.67;;;30.15;;
52396;SDS011;38322;53.108;6.308;2022-11-15T07:03:19;48.45;;;27.13;;
52396;SDS011;38322;53.108;6.308;2022-11-15T07:05:54;55.17;;;27.63;;
52396;SDS011;38322;53.108;6.308;2022-11-15T07:08:21;50.25;;;28.02;;
52396;SDS011;38322;53.108;6.308;2022-11-15T07:10:48;47.60;;;25.83;;
52396;SDS011;38322;53.108;6.308;2022-11-15T07:13:15;46.38;;;27.27;;
52396;SDS011;38322;53.108;6.308;2022-11-15T07:15:40;47.08;;;27.48;;
52396;SDS011;38322;53.108;6.308;2022-11-15T07:18:06;50.65;;;28.27;;
52396;SDS011;38322;53.108;6.308;2022-11-15T07:20:32;45.83;;;26.52;;
52396;SDS011;38322;53.108;6.308;2022-11-15T07:23:00;43.58;;;27.33;;
52396;SDS011;38322;53.108;6.308;2022-11-15T07:25:27;41.88;;;25.00;;
52396;SDS011;38322;53.108;6.308;2022-11-15T07:27:55;44.70;;;25.83;;
52396;SDS011;38322;53.108;6.308;2022-11-15T07:30:22;40.20;;;26.65;;
52396;SDS011;38322;53.108;6.308;2022-11-15T07:32:54;42.47;;;25.85;;
52396;SDS011;38322;53.108;6.308;2022-11-15T07:35:21;44.47;;;25.73;;
52396;SDS011;38322;53.108;6.308;2022-11-15T07:37:57;44.22;;;26.23;;
52396;SDS011;38322;53.108;6.308;2022-11-15T07:40:30;41.13;;;26.48;;
52396;SDS011;38322;53.108;6.308;2022-11-15T07:42:58;44.58;;;26.92;;
52396;SDS011;38322;53.108;6.308;2022-11-15T07:45:25;46.00;;;26.35;;
52396;SDS011;38322;53.108;6.308;2022-11-15T07:47:51;36.22;;;23.50;;
52396;SDS011;38322;53.108;6.308;2022-11-15T07:50:17;45.13;;;27.33;;
52396;SDS011;38322;53.108;6.308;2022-11-15T07:52:44;38.95;;;24.23;;
52396;SDS011;38322;53.108;6.308;2022-11-15T07:55:10;39.33;;;25.58;;
52396;SDS011;38322;53.108;6.308;2022-11-15T07:57:36;35.78;;;26.05;;
52396;SDS011;38322;53.108;6.308;2022-11-15T08:00:03;41.75;;;25.35;;
52396;SDS011;38322;53.108;6.308;2022-11-15T08:02:30;44.78;;;25.50;;
52396;SDS011;38322;53.108;6.308;2022-11-15T08:04:56;46.00;;;26.30;;
52396;SDS011;38322;53.108;6.308;2022-11-15T08:07:22;39.75;;;24.70;;
52396;SDS011;38322;53.108;6.308;2022-11-15T08:09:48;37.72;;;24.67;;
52396;SDS011;38322;53.108;6.308;2022-11-15T08:12:14;32.40;;;23.58;;
52396;SDS011;38322;53.108;6.308;2022-11-15T08:14:40;39.90;;;23.98;;
52396;SDS011;38322;53.108;6.308;2022-11-15T08:17:06;39.70;;;26.33;;
52396;SDS011;38322;53.108;6.308;2022-11-15T08:19:31;35.95;;;24.17;;
52396;SDS011;38322;53.108;6.308;2022-11-15T08:21:57;41.83;;;24.30;;
52396;SDS011;38322;53.108;6.308;2022-11-15T08:24:23;38.78;;;26.73;;
52396;SDS011;38322;53.108;6.308;2022-11-15T08:26:49;42.70;;;25.90;;
52396;SDS011;38322;53.108;6.308;2022-11-15T08:29:15;34.60;;;23.52;;
52396;SDS011;38322;53.108;6.308;2022-11-15T08:31:40;35.83;;;24.38;;
52396;SDS011;38322;53.108;6.308;2022-11-15T08:34:06;39.20;;;23.90;;
52396;SDS011;38322;53.108;6.308;2022-11-15T08:36:32;32.67;;;22.92;;
52396;SDS011;38322;53.108;6.308;2022-11-15T08:38:58;36.60;;;22.23;;
52396;SDS011;38322;53.108;6.308;2022-11-15T08:41:25;34.72;;;23.90;;
52396;SDS011;38322;53.108;6.308;2022-11-15T08:43:55;33.75;;;24.23;;
52396;SDS011;38322;53.108;6.308;2022-11-15T08:46:21;35.58;;;21.65;;
52396;SDS011;38322;53.108;6.308;2022-11-15T08:48:46;29.42;;;20.13;;
52396;SDS011;38322;53.108;6.308;2022-11-15T08:51:12;33.97;;;24.40;;
52396;SDS011;38322;53.108;6.308;2022-11-15T08:53:38;37.00;;;22.02;;
52396;SDS011;38322;53.108;6.308;2022-11-15T08:56:06;31.17;;;21.27;;
52396;SDS011;38322;53.108;6.308;2022-11-15T08:58:34;34.45;;;21.02;;
52396;SDS011;38322;53.108;6.308;2022-11-15T09:01:00;35.47;;;24.50;;
52396;SDS011;38322;53.108;6.308;2022-11-15T09:03:26;30.27;;;21.38;;
52396;SDS011;38322;53.108;6.308;2022-11-15T09:05:54;26.15;;;20.60;;
52396;SDS011;38322;53.108;6.308;2022-11-15T09:08:21;26.10;;;21.15;;
52396;SDS011;38322;53.108;6.308;2022-11-15T09:10:47;31.17;;;20.85;;
52396;SDS011;38322;53.108;6.308;2022-11-15T09:13:12;31.60;;;20.40;;
52396;SDS011;38322;53.108;6.308;2022-11-15T09:15:39;30.27;;;21.48;;
52396;SDS011;38322;53.108;6.308;2022-11-15T09:18:05;25.80;;;20.38;;
52396;SDS011;38322;53.108;6.308;2022-11-15T09:20:30;31.20;;;22.23;;
52396;SDS011;38322;53.108;6.308;2022-11-15T09:23:03;26.23;;;19.58;;
52396;SDS011;38322;53.108;6.308;2022-11-15T09:25:29;30.00;;;20.42;;
52396;SDS011;38322;53.108;6.308;2022-11-15T09:27:56;29.30;;;20.00;;
52396;SDS011;38322;53.108;6.308;2022-11-15T09:30:23;27.98;;;18.67;;
52396;SDS011;38322;53.108;6.308;2022-11-15T09:32:49;27.38;;;18.58;;
52396;SDS011;38322;53.108;6.308;2022-11-15T09:35:15;27.02;;;19.20;;
52396;SDS011;38322;53.108;6.308;2022-11-15T09:37:41;34.28;;;18.73;;
52396;SDS011;38322;53.108;6.308;2022-11-15T09:40:09;28.92;;;20.73;;
52396;SDS011;38322;53.108;6.308;2022-11-15T09:42:45;27.38;;;19.00;;
52396;SDS011;38322;53.108;6.308;2022-11-15T09:45:20;26.02;;;18.90;;
52396;SDS011;38322;53.108;6.308;2022-11-15T09:48:07;32.22;;;21.33;;
52396;SDS011;38322;53.108;6.308;2022-11-15T09:50:56;25.58;;;20.63;;
52396;SDS011;38322;53.108;6.308;2022-11-15T09:53:36;31.30;;;18.65;;
52396;SDS011;38322;53.108;6.308;2022-11-15T09:56:14;28.30;;;18.30;;
52396;SDS011;38322;53.108;6.308;2022-11-15T09:59:00;29.52;;;19.70;;
52396;SDS011;38322;53.108;6.308;2022-11-15T10:04:20;24.63;;;17.30;;
52396;SDS011;38322;53.108;6.308;2022-11-15T10:07:02;23.50;;;18.58;;
52396;SDS011;38322;53.108;6.308;2022-11-15T10:09:30;20.95;;;16.90;;
52396;SDS011;38322;53.108;6.308;2022-11-15T10:12:03;29.73;;;19.83;;
52396;SDS011;38322;53.108;6.308;2022-11-15T10:14:29;25.13;;;16.90;;
52396;SDS011;38322;53.108;6.308;2022-11-15T10:17:01;25.17;;;16.48;;
52396;SDS011;38322;53.108;6.308;2022-11-15T10:20:02;24.15;;;17.45;;
52396;SDS011;38322;53.108;6.308;2022-11-15T10:22:46;27.08;;;17.40;;
52396;SDS011;38322;53.108;6.308;2022-11-15T10:27:44;26.02;;;17.10;;
52396;SDS011;38322;53.108;6.308;2022-11-15T10:30:17;24.58;;;17.17;;
52396;SDS011;38322;53.108;6.308;2022-11-15T10:32:44;23.45;;;17.65;;
52396;SDS011;38322;53.108;6.308;2022-11-15T10:40:32;29.30;;;17.88;;
52396;SDS011;38322;53.108;6.308;2022-11-15T10:45:44;20.20;;;17.02;;
52396;SDS011;38322;53.108;6.308;2022-11-15T10:50:37;19.65;;;14.45;;
52396;SDS011;38322;53.108;6.308;2022-11-15T10:53:03;19.90;;;14.88;;
52396;SDS011;38322;53.108;6.308;2022-11-15T10:55:36;20.27;;;14.90;;
52396;SDS011;38322;53.108;6.308;2022-11-15T10:58:09;24.10;;;13.75;;
52396;SDS011;38322;53.108;6.308;2022-11-15T11:00:44;20.88;;;13.60;;
52396;SDS011;38322;53.108;6.308;2022-11-15T11:03:28;18.73;;;13.52;;
52396;SDS011;38322;53.108;6.308;2022-11-15T11:06:04;19.23;;;12.55;;
52396;SDS011;38322;53.108;6.308;2022-11-15T11:08:31;17.35;;;13.25;;
52396;SDS011;38322;53.108;6.308;2022-11-15T11:10:59;16.27;;;12.93;;
52396;SDS011;38322;53.108;6.308;2022-11-15T11:13:27;16.52;;;12.02;;
52396;SDS011;38322;53.108;6.308;2022-11-15T11:15:56;17.42;;;11.88;;
52396;SDS011;38322;53.108;6.308;2022-11-15T11:18:26;14.88;;;12.43;;
52396;SDS011;38322;53.108;6.308;2022-11-15T11:20:59;23.75;;;11.43;;
52396;SDS011;38322;53.108;6.308;2022-11-15T11:23:42;14.18;;;10.55;;
52396;SDS011;38322;53.108;6.308;2022-11-15T11:29:19;14.10;;;10.13;;
52396;SDS011;38322;53.108;6.308;2022-11-15T11:31:58;13.05;;;10.15;;
52396;SDS011;38322;53.108;6.308;2022-11-15T11:34:55;14.63;;;7.97;;
52396;SDS011;38322;53.108;6.308;2022-11-15T11:40:30;9.57;;;6.38;;
52396;SDS011;38322;53.108;6.308;2022-11-15T11:43:18;11.07;;;7.20;;
52396;SDS011;38322;53.108;6.308;2022-11-15T11:48:48;9.23;;;7.13;;
52396;SDS011;38322;53.108;6.308;2022-11-15T11:51:18;11.35;;;5.93;;
52396;SDS011;38322;53.108;6.308;2022-11-15T11:53:59;8.57;;;4.90;;
52396;SDS011;38322;53.108;6.308;2022-11-15T11:56:32;7.78;;;5.57;;
52396;SDS011;38322;53.108;6.308;2022-11-15T12:01:50;9.02;;;5.15;;
52396;SDS011;38322;53.108;6.308;2022-11-15T12:04:19;7.80;;;4.32;;
52396;SDS011;38322;53.108;6.308;2022-11-15T12:06:54;6.20;;;4.50;;
52396;SDS011;38322;53.108;6.308;2022-11-15T12:14:38;6.72;;;3.95;;
52396;SDS011;38322;53.108;6.308;2022-11-15T12:17:09;8.50;;;3.92;;
52396;SDS011;38322;53.108;6.308;2022-11-15T12:19:36;6.53;;;3.58;;
52396;SDS011;38322;53.108;6.308;2022-11-15T12:22:04;9.77;;;6.32;;
52396;SDS011;38322;53.108;6.308;2022-11-15T12:24:41;5.75;;;4.03;;
52396;SDS011;38322;53.108;6.308;2022-11-15T12:29:40;3.72;;;3.35;;
52396;SDS011;38322;53.108;6.308;2022-11-15T12:32:24;7.20;;;3.50;;
52396;SDS011;38322;53.108;6.308;2022-11-15T12:34:53;5.28;;;4.18;;
52396;SDS011;38322;53.108;6.308;2022-11-15T12:42:59;6.10;;;3.05;;
52396;SDS011;38322;53.108;6.308;2022-11-15T12:45:28;6.57;;;3.90;;
52396;SDS011;38322;53.108;6.308;2022-11-15T12:50:55;5.00;;;2.75;;
52396;SDS011;38322;53.108;6.308;2022-11-15T12:56:08;6.18;;;3.67;;
52396;SDS011;38322;53.108;6.308;2022-11-15T12:58:50;3.97;;;2.53;;
52396;SDS011;38322;53.108;6.308;2022-11-15T13:06:40;6.18;;;3.28;;
52396;SDS011;38322;53.108;6.308;2022-11-15T13:11:59;5.53;;;2.92;;
52396;SDS011;38322;53.108;6.308;2022-11-15T13:17:25;3.95;;;2.70;;
52396;SDS011;38322;53.108;6.308;2022-11-15T13:22:50;7.43;;;2.83;;
52396;SDS011;38322;53.108;6.308;2022-11-15T13:28:03;4.13;;;2.15;;
52396;SDS011;38322;53.108;6.308;2022-11-15T13:33:22;3.33;;;1.70;;
52396;SDS011;38322;53.108;6.308;2022-11-15T13:35:52;5.95;;;2.15;;
52396;SDS011;38322;53.108;6.308;2022-11-15T13:38:28;4.90;;;2.38;;
52396;SDS011;38322;53.108;6.308;2022-11-15T13:40:57;8.20;;;1.92;;
52396;SDS011;38322;53.108;6.308;2022-11-15T13:43:27;3.08;;;1.77;;
52396;SDS011;38322;53.108;6.308;2022-11-15T13:46:12;4.40;;;1.88;;
52396;SDS011;38322;53.108;6.308;2022-11-15T13:48:42;4.40;;;2.10;;
52396;SDS011;38322;53.108;6.308;2022-11-15T13:51:13;3.63;;;1.40;;
52396;SDS011;38322;53.108;6.308;2022-11-15T13:56:21;6.55;;;1.92;;
52396;SDS011;38322;53.108;6.308;2022-11-15T13:58:47;4.68;;;1.73;;
52396;SDS011;38322;53.108;6.308;2022-11-15T14:01:14;3.05;;;1.67;;
52396;SDS011;38322;53.108;6.308;2022-11-15T14:03:49;4.20;;;1.98;;
52396;SDS011;38322;53.108;6.308;2022-11-15T14:06:20;8.95;;;1.83;;
52396;SDS011;38322;53.108;6.308;2022-11-15T14:09:03;6.03;;;1.73;;
52396;SDS011;38322;53.108;6.308;2022-11-15T14:11:32;7.05;;;1.52;;
52396;SDS011;38322;53.108;6.308;2022-11-15T14:14:11;3.72;;;1.65;;
52396;SDS011;38322;53.108;6.308;2022-11-15T14:16:44;2.63;;;1.38;;
52396;SDS011;38322;53.108;6.308;2022-11-15T14:19:12;2.00;;;1.13;;
52396;SDS011;38322;53.108;6.308;2022-11-15T14:22:09;4.97;;;1.67;;
52396;SDS011;38322;53.108;6.308;2022-11-15T14:24:47;5.30;;;2.05;;
52396;SDS011;38322;53.108;6.308;2022-11-15T14:27:32;2.60;;;2.05;;
52396;SDS011;38322;53.108;6.308;2022-11-15T14:29:59;3.90;;;1.38;;
52396;SDS011;38322;53.108;6.308;2022-11-15T14:32:27;7.38;;;2.13;;
52396;SDS011;38322;53.108;6.308;2022-11-15T14:34:58;2.70;;;1.77;;
52396;SDS011;38322;53.108;6.308;2022-11-15T14:37:26;2.25;;;1.42;;
52396;SDS011;38322;53.108;6.308;2022-11-15T14:39:56;4.25;;;1.73;;
52396;SDS011;38322;53.108;6.308;2022-11-15T14:42:23;4.00;;;2.00;;
52396;SDS011;38322;53.108;6.308;2022-11-15T14:44:49;3.45;;;1.48;;
52396;SDS011;38322;53.108;6.308;2022-11-15T14:47:15;4.63;;;1.80;;
52396;SDS011;38322;53.108;6.308;2022-11-15T14:49:42;3.05;;;1.95;;
52396;SDS011;38322;53.108;6.308;2022-11-15T14:52:23;2.50;;;1.83;;
52396;SDS011;38322;53.108;6.308;2022-11-15T14:54:59;4.50;;;1.02;;
52396;SDS011;38322;53.108;6.308;2022-11-15T14:57:26;3.22;;;0.65;;
52396;SDS011;38322;53.108;6.308;2022-11-15T14:59:52;2.10;;;1.17;;
52396;SDS011;38322;53.108;6.308;2022-11-15T15:02:19;2.72;;;0.90;;
52396;SDS011;38322;53.108;6.308;2022-11-15T15:04:46;1.30;;;0.82;;
52396;SDS011;38322;53.108;6.308;2022-11-15T15:07:13;3.03;;;0.70;;
52396;SDS011;38322;53.108;6.308;2022-11-15T15:09:39;3.05;;;0.85;;
52396;SDS011;38322;53.108;6.308;2022-11-15T15:12:09;4.95;;;0.50;;
52396;SDS011;38322;53.108;6.308;2022-11-15T15:14:43;5.40;;;1.17;;
52396;SDS011;38322;53.108;6.308;2022-11-15T15:17:09;1.55;;;1.20;;
52396;SDS011;38322;53.108;6.308;2022-11-15T15:19:36;2.25;;;0.70;;
52396;SDS011;38322;53.108;6.308;2022-11-15T15:22:02;0.95;;;0.57;;
52396;SDS011;38322;53.108;6.308;2022-11-15T15:24:27;2.40;;;0.80;;
52396;SDS011;38322;53.108;6.308;2022-11-15T15:26:53;3.13;;;0.77;;
52396;SDS011;38322;53.108;6.308;2022-11-15T15:29:19;3.15;;;0.73;;
52396;SDS011;38322;53.108;6.308;2022-11-15T15:31:45;2.00;;;1.20;;
52396;SDS011;38322;53.108;6.308;2022-11-15T15:34:11;5.03;;;0.88;;
52396;SDS011;38322;53.108;6.308;2022-11-15T15:36:36;1.80;;;0.68;;
52396;SDS011;38322;53.108;6.308;2022-11-15T15:39:02;4.93;;;1.00;;
52396;SDS011;38322;53.108;6.308;2022-11-15T15:41:28;4.70;;;0.95;;
52396;SDS011;38322;53.108;6.308;2022-11-15T15:43:54;3.63;;;1.27;;
52396;SDS011;38322;53.108;6.308;2022-11-15T15:46:20;4.40;;;1.58;;
52396;SDS011;38322;53.108;6.308;2022-11-15T15:48:46;2.92;;;1.70;;
52396;SDS011;38322;53.108;6.308;2022-11-15T15:51:12;5.30;;;1.73;;
52396;SDS011;38322;53.108;6.308;2022-11-15T15:53:38;2.95;;;1.80;;
52396;SDS011;38322;53.108;6.308;2022-11-15T15:56:04;3.97;;;2.50;;
52396;SDS011;38322;53.108;6.308;2022-11-15T15:58:33;3.65;;;1.88;;
52396;SDS011;38322;53.108;6.308;2022-11-15T16:00:59;3.40;;;2.33;;
52396;SDS011;38322;53.108;6.308;2022-11-15T16:03:25;3.10;;;1.95;;
52396;SDS011;38322;53.108;6.308;2022-11-15T16:05:53;3.05;;;2.58;;
52396;SDS011;38322;53.108;6.308;2022-11-15T16:08:20;5.65;;;2.25;;
52396;SDS011;38322;53.108;6.308;2022-11-15T16:10:48;4.10;;;2.58;;
52396;SDS011;38322;53.108;6.308;2022-11-15T16:13:14;6.63;;;2.80;;
52396;SDS011;38322;53.108;6.308;2022-11-15T16:15:40;3.47;;;3.03;;
52396;SDS011;38322;53.108;6.308;2022-11-15T16:18:14;5.47;;;3.90;;
52396;SDS011;38322;53.108;6.308;2022-11-15T16:20:42;4.50;;;3.15;;
52396;SDS011;38322;53.108;6.308;2022-11-15T16:23:10;4.25;;;3.40;;
52396;SDS011;38322;53.108;6.308;2022-11-15T16:25:45;5.22;;;3.08;;
52396;SDS011;38322;53.108;6.308;2022-11-15T16:28:21;3.50;;;2.90;;
52396;SDS011;38322;53.108;6.308;2022-11-15T16:30:59;6.40;;;3.05;;
52396;SDS011;38322;53.108;6.308;2022-11-15T16:33:27;5.88;;;4.18;;
52396;SDS011;38322;53.108;6.308;2022-11-15T16:35:53;5.20;;;3.20;;
52396;SDS011;38322;53.108;6.308;2022-11-15T16:38:19;3.78;;;2.88;;
52396;SDS011;38322;53.108;6.308;2022-11-15T16:40:45;4.63;;;3.55;;
52396;SDS011;38322;53.108;6.308;2022-11-15T16:43:11;3.53;;;2.97;;
52396;SDS011;38322;53.108;6.308;2022-11-15T16:45:38;3.20;;;2.83;;
52396;SDS011;38322;53.108;6.308;2022-11-15T16:48:04;4.68;;;2.67;;
52396;SDS011;38322;53.108;6.308;2022-11-15T16:50:30;3.78;;;2.95;;
52396;SDS011;38322;53.108;6.308;2022-11-15T16:53:04;4.88;;;2.60;;
52396;SDS011;38322;53.108;6.308;2022-11-15T16:55:30;3.58;;;2.05;;
52396;SDS011;38322;53.108;6.308;2022-11-15T16:57:56;4.38;;;2.15;;
52396;SDS011;38322;53.108;6.308;2022-11-15T17:00:22;5.32;;;2.33;;
52396;SDS011;38322;53.108;6.308;2022-11-15T17:02:49;2.40;;;1.70;;
52396;SDS011;38322;53.108;6.308;2022-11-15T17:05:17;3.72;;;2.30;;
52396;SDS011;38322;53.108;6.308;2022-11-15T17:07:45;6.20;;;1.92;;
52396;SDS011;38322;53.108;6.308;2022-11-15T17:10:14;3.63;;;2.22;;
52396;SDS011;38322;53.108;6.308;2022-11-15T17:12:41;5.53;;;2.55;;
52396;SDS011;38322;53.108;6.308;2022-11-15T17:15:07;5.50;;;2.67;;
52396;SDS011;38322;53.108;6.308;2022-11-15T17:17:35;2.53;;;1.95;;
52396;SDS011;38322;53.108;6.308;2022-11-15T17:20:01;3.22;;;2.22;;
52396;SDS011;38322;53.108;6.308;2022-11-15T17:22:29;5.25;;;2.10;;
52396;SDS011;38322;53.108;6.308;2022-11-15T17:24:56;3.42;;;2.45;;
52396;SDS011;38322;53.108;6.308;2022-11-15T17:27:22;2.60;;;2.40;;
52396;SDS011;38322;53.108;6.308;2022-11-15T17:29:47;6.28;;;2.28;;
52396;SDS011;38322;53.108;6.308;2022-11-15T17:32:13;8.10;;;2.38;;
52396;SDS011;38322;53.108;6.308;2022-11-15T17:34:39;5.80;;;2.50;;
52396;SDS011;38322;53.108;6.308;2022-11-15T17:37:05;4.07;;;1.60;;
52396;SDS011;38322;53.108;6.308;2022-11-15T17:39:32;2.38;;;1.60;;
52396;SDS011;38322;53.108;6.308;2022-11-15T17:41:58;1.70;;;1.50;;
52396;SDS011;38322;53.108;6.308;2022-11-15T17:44:23;5.80;;;1.40;;
52396;SDS011;38322;53.108;6.308;2022-11-15T17:46:49;3.58;;;0.90;;
52396;SDS011;38322;53.108;6.308;2022-11-15T17:49:15;7.75;;;1.67;;
52396;SDS011;38322;53.108;6.308;2022-11-15T17:51:41;2.08;;;0.82;;
52396;SDS011;38322;53.108;6.308;2022-11-15T17:54:09;4.85;;;1.15;;
52396;SDS011;38322;53.108;6.308;2022-11-15T17:56:37;2.33;;;1.10;;
52396;SDS011;38322;53.108;6.308;2022-11-15T17:59:04;2.58;;;1.10;;
52396;SDS011;38322;53.108;6.308;2022-11-15T18:01:32;3.35;;;0.73;;
52396;SDS011;38322;53.108;6.308;2022-11-15T18:04:00;3.35;;;1.35;;
52396;SDS011;38322;53.108;6.308;2022-11-15T18:06:28;2.30;;;0.45;;
52396;SDS011;38322;53.108;6.308;2022-11-15T18:08:56;4.75;;;2.05;;
52396;SDS011;38322;53.108;6.308;2022-11-15T18:11:23;2.90;;;1.17;;
52396;SDS011;38322;53.108;6.308;2022-11-15T18:13:52;5.22;;;1.02;;
52396;SDS011;38322;53.108;6.308;2022-11-15T18:16:21;2.28;;;0.80;;
52396;SDS011;38322;53.108;6.308;2022-11-15T18:18:50;1.98;;;0.75;;
52396;SDS011;38322;53.108;6.308;2022-11-15T18:21:19;6.35;;;1.00;;
52396;SDS011;38322;53.108;6.308;2022-11-15T18:23:47;4.03;;;0.68;;
52396;SDS011;38322;53.108;6.308;2022-11-15T18:26:16;2.65;;;0.60;;
52396;SDS011;38322;53.108;6.308;2022-11-15T18:28:44;2.28;;;0.60;;
52396;SDS011;38322;53.108;6.308;2022-11-15T18:31:19;1.75;;;1.02;;
52396;SDS011;38322;53.108;6.308;2022-11-15T18:33:47;3.55;;;0.77;;
52396;SDS011;38322;53.108;6.308;2022-11-15T18:36:15;1.38;;;0.82;;
52396;SDS011;38322;53.108;6.308;2022-11-15T18:38:43;2.00;;;1.00;;
52396;SDS011;38322;53.108;6.308;2022-11-15T18:41:11;4.43;;;1.90;;
52396;SDS011;38322;53.108;6.308;2022-11-15T18:43:42;1.88;;;1.13;;
52396;SDS011;38322;53.108;6.308;2022-11-15T18:46:09;1.75;;;0.70;;
52396;SDS011;38322;53.108;6.308;2022-11-15T18:48:37;1.15;;;0.60;;
52396;SDS011;38322;53.108;6.308;2022-11-15T18:51:06;3.63;;;0.88;;
52396;SDS011;38322;53.108;6.308;2022-11-15T18:53:35;1.45;;;0.50;;
52396;SDS011;38322;53.108;6.308;2022-11-15T18:56:03;1.63;;;0.50;;
52396;SDS011;38322;53.108;6.308;2022-11-15T18:58:31;5.13;;;1.15;;
52396;SDS011;38322;53.108;6.308;2022-11-15T19:01:03;3.72;;;0.43;;
52396;SDS011;38322;53.108;6.308;2022-11-15T19:06:01;1.63;;;0.75;;
52396;SDS011;38322;53.108;6.308;2022-11-15T19:08:29;1.20;;;0.60;;
52396;SDS011;38322;53.108;6.308;2022-11-15T19:10:55;4.60;;;0.95;;
52396;SDS011;38322;53.108;6.308;2022-11-15T19:13:21;1.50;;;0.50;;
52396;SDS011;38322;53.108;6.308;2022-11-15T19:15:47;2.53;;;0.70;;
52396;SDS011;38322;53.108;6.308;2022-11-15T19:18:13;3.83;;;0.52;;
52396;SDS011;38322;53.108;6.308;2022-11-15T19:20:39;1.70;;;0.95;;
52396;SDS011;38322;53.108;6.308;2022-11-15T19:23:05;3.63;;;1.77;;
52396;SDS011;38322;53.108;6.308;2022-11-15T19:25:31;5.30;;;0.60;;
52396;SDS011;38322;53.108;6.308;2022-11-15T19:27:57;2.42;;;0.60;;
52396;SDS011;38322;53.108;6.308;2022-11-15T19:30:22;1.23;;;0.75;;
52396;SDS011;38322;53.108;6.308;2022-11-15T19:32:48;3.20;;;0.63;;
52396;SDS011;38322;53.108;6.308;2022-11-15T19:35:14;1.38;;;0.35;;
52396;SDS011;38322;53.108;6.308;2022-11-15T19:37:40;3.13;;;1.40;;
52396;SDS011;38322;53.108;6.308;2022-11-15T19:40:06;3.75;;;1.40;;
52396;SDS011;38322;53.108;6.308;2022-11-15T19:42:32;3.05;;;1.25;;
52396;SDS011;38322;53.108;6.308;2022-11-15T19:44:58;1.50;;;0.70;;
52396;SDS011;38322;53.108;6.308;2022-11-15T19:47:24;2.35;;;0.93;;
52396;SDS011;38322;53.108;6.308;2022-11-15T19:49:50;2.88;;;1.50;;
52396;SDS011;38322;53.108;6.308;2022-11-15T19:52:16;1.92;;;0.70;;
52396;SDS011;38322;53.108;6.308;2022-11-15T19:54:44;4.68;;;0.60;;
52396;SDS011;38322;53.108;6.308;2022-11-15T19:57:10;2.05;;;0.80;;
52396;SDS011;38322;53.108;6.308;2022-11-15T19:59:36;1.92;;;1.08;;
52396;SDS011;38322;53.108;6.308;2022-11-15T20:02:02;4.40;;;1.67;;
52396;SDS011;38322;53.108;6.308;2022-11-15T20:04:28;6.57;;;1.63;;
52396;SDS011;38322;53.108;6.308;2022-11-15T20:06:53;3.38;;;1.92;;
52396;SDS011;38322;53.108;6.308;2022-11-15T20:09:19;4.65;;;1.13;;
52396;SDS011;38322;53.108;6.308;2022-11-15T20:11:45;1.52;;;0.68;;
52396;SDS011;38322;53.108;6.308;2022-11-15T20:14:11;2.83;;;1.20;;
52396;SDS011;38322;53.108;6.308;2022-11-15T20:16:38;3.22;;;1.10;;
52396;SDS011;38322;53.108;6.308;2022-11-15T20:19:04;1.90;;;1.02;;
52396;SDS011;38322;53.108;6.308;2022-11-15T20:21:32;3.40;;;2.05;;
52396;SDS011;38322;53.108;6.308;2022-11-15T20:23:58;1.85;;;1.17;;
52396;SDS011;38322;53.108;6.308;2022-11-15T20:26:24;4.28;;;1.55;;
52396;SDS011;38322;53.108;6.308;2022-11-15T20:28:50;4.70;;;1.52;;
52396;SDS011;38322;53.108;6.308;2022-11-15T20:31:16;3.35;;;2.00;;
52396;SDS011;38322;53.108;6.308;2022-11-15T20:33:42;4.25;;;1.70;;
52396;SDS011;38322;53.108;6.308;2022-11-15T20:36:09;1.83;;;1.15;;
52396;SDS011;38322;53.108;6.308;2022-11-15T20:38:37;3.50;;;1.88;;
52396;SDS011;38322;53.108;6.308;2022-11-15T20:41:03;5.05;;;1.33;;
52396;SDS011;38322;53.108;6.308;2022-11-15T20:43:29;2.40;;;1.95;;
52396;SDS011;38322;53.108;6.308;2022-11-15T20:45:55;3.75;;;2.00;;
52396;SDS011;38322;53.108;6.308;2022-11-15T20:48:21;3.08;;;0.98;;
52396;SDS011;38322;53.108;6.308;2022-11-15T20:50:47;3.58;;;1.63;;
52396;SDS011;38322;53.108;6.308;2022-11-15T20:53:14;3.78;;;1.77;;
52396;SDS011;38322;53.108;6.308;2022-11-15T20:55:42;2.00;;;1.15;;
52396;SDS011;38322;53.108;6.308;2022-11-15T20:58:12;4.13;;;2.00;;
